Pewamo, MI (48873)

7:55 PM EST on December 22, 2014 (GMT -0500)
KMIWESTP2 | Change Station
CLOSE
Current Station
Personal Weather Station
Location: Westphalia, MI
Elevation: 788 ft
Nearby Weather Stations

Elev 788 ft 42.93 °N, 84.79 °W | Updated 0 second ago

Rain
Rain
34.3 °F
Feels Like 31 °F
N
3.8
Wind Variable Wind from ESE
Gusts 5.4 mph

Today
High -- | Low -- °F
--% Chance of Precip.
Yesterday
High -- | Low -- °F
Precip. -- in
8:07 AM 5:08 PM
New Moon, 1% visible
Pressure 29.85 in
Visibility 5.0 miles
Clouds Scattered Clouds 3400 ft
Mostly Cloudy 4400 ft
Overcast 5000 ft
Windchill 31 °F
Dew Point 34 °F
Humidity 99%
Rainfall 0.00 in
Snow Depth Not available.
UV 0 out of 12
Pollen .10 out of 12
Air Quality Not available.
Flu Activity Not available.
METAR KY70 230033Z AUTO 09009G14KT 5SM UP SCT034 BKN044 OVC050 02/00 A2985 RMK AO2 T00160002

More Conditions Fewer Conditions

Pressure 29.85 in
Visibility 5.0 miles
Clouds Scattered Clouds 3400 ft
Mostly Cloudy 4400 ft
Overcast 5000 ft
Windchill 31 °F
Dew Point 34 °F
Humidity 99%
Rainfall 0.00 in
Snow Depth Not available.
UV 0 out of 12
Pollen .10 out of 12
Air Quality Not available.
Flu Activity Not available.
METAR KY70 230033Z AUTO 09009G14KT 5SM UP SCT034 BKN044 OVC050 02/00 A2985 RMK AO2 T00160002

More Conditions Fewer Conditions

10-Day Weather Forecast

Almanac

Astronomy

Dec. 22, 2014 Rise Set
Actual Time
Civil Twilight
Nautical Twilight
Astronomical Twilight
Moon
Length of Visible Light
Length of Day
Tomorrow will be .
, % of the Moon is Illuminated

Today's Extremes

State Highs State Lows

Community

WunderPhotos

Upload Photos

1,779,740 photos uploaded!

WunderBlogs® & News

Nearby

Air Quality

  Air Quality AQ Index Pollutant
Not available.

Snow Depth

Station Depth Elevation

Earthquake Activity

City Distance Mag. Time & Date
Minimum magnitude displayed is 2.5.

Coastal Water Temperatures

Place Temperature

Nearby Weather Stations